createdAt,value
2022-08-24T00:00:21.611Z,97.00
2022-08-24T00:02:50.410Z,97.00
2022-08-24T00:05:21.783Z,97.00
2022-08-24T00:07:50.334Z,97.10
2022-08-24T00:10:19.088Z,97.30
2022-08-24T00:12:47.242Z,97.20
2022-08-24T00:15:16.656Z,97.10
2022-08-24T00:17:45.763Z,97.20
2022-08-24T00:20:15.234Z,97.50
2022-08-24T00:22:44.742Z,97.70
2022-08-24T00:25:13.843Z,97.90
2022-08-24T00:27:43.069Z,98.20
2022-08-24T00:30:15.848Z,98.20
2022-08-24T00:32:44.188Z,98.20
2022-08-24T00:35:13.103Z,98.20
2022-08-24T00:37:41.925Z,98.20
2022-08-24T00:40:17.079Z,98.30
2022-08-24T00:42:45.109Z,98.30
2022-08-24T00:45:16.284Z,98.30
2022-08-24T00:47:48.639Z,98.60
2022-08-24T00:50:23.181Z,98.90
2022-08-24T00:52:53.895Z,98.90
2022-08-24T00:55:28.318Z,98.90
2022-08-24T00:58:00.090Z,98.90
2022-08-24T01:00:33.090Z,98.90
2022-08-24T01:03:04.893Z,99.40
2022-08-24T01:05:34.297Z,99.50
2022-08-24T01:08:04.072Z,99.60
2022-08-24T01:10:37.834Z,99.70
2022-08-24T01:13:09.466Z,99.60
2022-08-24T01:15:40.500Z,99.50
2022-08-24T01:18:30.480Z,99.50
2022-08-24T01:21:02.673Z,99.50
2022-08-24T01:23:40.403Z,99.50
2022-08-24T01:26:11.184Z,99.60
2022-08-24T01:28:43.428Z,99.70
2022-08-24T01:31:11.601Z,99.90
2022-08-24T01:33:39.656Z,99.90
2022-08-24T01:36:15.879Z,99.90
2022-08-24T01:38:46.412Z,99.90
2022-08-24T01:41:14.348Z,99.90
2022-08-24T01:43:42.525Z,99.90
2022-08-24T01:46:10.558Z,99.90
2022-08-24T01:48:38.671Z,99.90
2022-08-24T01:51:06.943Z,99.90
2022-08-24T01:53:34.977Z,99.90
2022-08-24T01:56:06.048Z,99.90
2022-08-24T01:58:34.070Z,99.90
2022-08-24T02:01:02.332Z,99.90
2022-08-24T02:03:31.068Z,99.90
2022-08-24T02:05:59.503Z,99.90
2022-08-24T02:08:27.607Z,99.90
2022-08-24T02:10:57.013Z,99.90
2022-08-24T02:13:27.028Z,99.90
2022-08-24T02:15:55.243Z,99.90
2022-08-24T02:18:23.229Z,99.90
2022-08-24T02:20:51.513Z,99.90
2022-08-24T02:23:20.456Z,99.90
2022-08-24T02:25:48.712Z,99.90
2022-08-24T02:28:16.597Z,99.90
2022-08-24T02:30:45.959Z,99.90
2022-08-24T02:33:14.665Z,99.90
2022-08-24T02:35:42.701Z,99.90
2022-08-24T02:38:10.882Z,99.90
2022-08-24T02:40:39.443Z,99.90
2022-08-24T02:43:07.558Z,99.90
2022-08-24T02:45:40.405Z,99.90
2022-08-24T02:48:10.484Z,99.90
2022-08-24T02:50:40.602Z,99.90
2022-08-24T02:53:08.600Z,99.90
2022-08-24T02:55:39.220Z,99.90
2022-08-24T02:58:07.605Z,99.90
2022-08-24T03:00:38.416Z,99.90
2022-08-24T03:03:07.654Z,99.90
2022-08-24T03:05:37.405Z,99.90
2022-08-24T03:08:06.246Z,99.90
2022-08-24T03:10:34.370Z,99.90
2022-08-24T03:13:02.995Z,99.90
2022-08-24T03:15:31.224Z,99.90
2022-08-24T03:17:59.270Z,99.90
2022-08-24T03:20:27.238Z,99.90
2022-08-24T03:22:56.722Z,99.90
2022-08-24T03:25:26.535Z,99.90
2022-08-24T03:27:54.668Z,99.90
2022-08-24T03:30:24.150Z,99.90
2022-08-24T03:32:52.827Z,99.90
2022-08-24T03:35:22.465Z,99.90
2022-08-24T03:37:50.759Z,99.90
2022-08-24T03:40:24.344Z,99.90
2022-08-24T03:42:53.759Z,99.90
2022-08-24T03:45:22.777Z,99.90
2022-08-24T03:47:50.800Z,99.90
2022-08-24T03:50:19.175Z,99.90
2022-08-24T03:52:47.407Z,99.90
2022-08-24T03:55:15.378Z,99.90
2022-08-24T03:57:45.176Z,99.90
2022-08-24T04:00:14.797Z,99.90
2022-08-24T04:02:44.231Z,99.90
2022-08-24T04:05:13.311Z,99.90
2022-08-24T04:07:41.318Z,99.90
2022-08-24T04:10:11.280Z,99.90
2022-08-24T04:12:39.228Z,99.90
2022-08-24T04:15:10.044Z,99.90
2022-08-24T04:17:38.011Z,99.90
2022-08-24T04:20:07.574Z,99.90
2022-08-24T04:22:36.338Z,99.90
2022-08-24T04:25:09.005Z,99.90
2022-08-24T04:27:38.076Z,99.90
2022-08-24T04:30:08.618Z,99.90
2022-08-24T04:32:36.590Z,99.90
2022-08-24T04:35:06.260Z,99.90
2022-08-24T04:37:34.220Z,99.90
2022-08-24T04:40:03.315Z,99.90
2022-08-24T04:42:33.479Z,99.90
2022-08-24T04:45:01.607Z,99.90
2022-08-24T04:47:30.941Z,99.90
2022-08-24T04:49:58.878Z,99.90
2022-08-24T04:52:26.847Z,99.90
2022-08-24T04:54:55.003Z,99.90
2022-08-24T04:57:22.956Z,99.40
2022-08-24T04:59:50.887Z,99.00
2022-08-24T05:02:21.050Z,98.70
2022-08-24T05:04:50.476Z,98.90
2022-08-24T05:07:18.731Z,99.30
2022-08-24T05:09:47.179Z,99.60
2022-08-24T05:12:15.159Z,99.90
2022-08-24T05:14:43.091Z,99.80
2022-08-24T05:17:11.027Z,99.90
2022-08-24T05:19:39.058Z,99.90
2022-08-24T05:22:08.392Z,99.90
2022-08-24T05:24:36.358Z,99.90
2022-08-24T05:27:04.803Z,99.90
2022-08-24T05:29:34.692Z,99.90
2022-08-24T05:32:03.079Z,99.90
2022-08-24T05:34:36.405Z,99.90
2022-08-24T05:37:04.749Z,99.90
2022-08-24T05:39:34.055Z,99.90
2022-08-24T05:42:02.033Z,99.70
2022-08-24T05:44:31.468Z,99.10
2022-08-24T05:47:01.064Z,98.20
2022-08-24T05:49:29.791Z,97.70
2022-08-24T05:51:57.789Z,97.40
2022-08-24T05:54:25.703Z,97.40
2022-08-24T05:56:55.450Z,97.20
2022-08-24T05:59:23.386Z,97.30
2022-08-24T06:01:51.645Z,97.50
2022-08-24T06:04:19.974Z,97.80
2022-08-24T06:06:48.638Z,97.80
2022-08-24T06:09:17.315Z,97.90
2022-08-24T06:11:46.827Z,97.70
2022-08-24T06:14:21.909Z,97.60
2022-08-24T06:16:53.546Z,97.40
2022-08-24T06:19:21.944Z,97.30
2022-08-24T06:21:53.556Z,97.20
2022-08-24T06:24:43.436Z,97.30
2022-08-24T06:27:22.295Z,97.40
2022-08-24T06:29:53.740Z,97.30
2022-08-24T06:32:22.522Z,97.30
2022-08-24T06:34:52.590Z,96.80
2022-08-24T06:37:20.686Z,96.60
2022-08-24T06:39:49.024Z,96.60
2022-08-24T06:42:24.527Z,96.60
2022-08-24T06:44:53.995Z,96.60
2022-08-24T06:47:22.610Z,96.60
2022-08-24T06:49:50.651Z,96.60
2022-08-24T06:52:18.822Z,96.40
2022-08-24T06:54:46.796Z,96.50
2022-08-24T06:57:14.767Z,95.90
2022-08-24T06:59:43.080Z,95.80
2022-08-24T07:02:15.732Z,95.70
2022-08-24T07:04:43.724Z,95.70
2022-08-24T07:07:11.765Z,95.60
2022-08-24T07:09:40.327Z,95.40
2022-08-24T07:12:11.185Z,95.20
2022-08-24T07:14:39.187Z,95.20
2022-08-24T07:17:07.290Z,95.20
2022-08-24T07:19:37.785Z,95.30
2022-08-24T07:22:05.787Z,94.80
2022-08-24T07:24:33.779Z,94.60
2022-08-24T07:27:01.914Z,94.40
2022-08-24T07:29:48.545Z,94.50
2022-08-24T07:32:17.977Z,94.00
2022-08-24T07:34:47.323Z,93.80
2022-08-24T07:37:15.334Z,93.70
2022-08-24T07:39:43.807Z,93.90
2022-08-24T07:42:14.032Z,93.80
2022-08-24T07:44:44.067Z,93.70
2022-08-24T07:47:36.541Z,93.80
2022-08-24T07:50:01.754Z,93.80
2022-08-24T07:52:29.696Z,93.60
2022-08-24T07:54:57.932Z,93.60
2022-08-24T07:57:26.183Z,93.60
2022-08-24T07:59:56.058Z,93.50
2022-08-24T08:02:24.184Z,93.30
2022-08-24T08:04:57.494Z,93.30
2022-08-24T08:07:28.459Z,93.30
2022-08-24T08:09:56.403Z,92.80
2022-08-24T08:12:24.515Z,92.90
2022-08-24T08:14:52.495Z,93.00
2022-08-24T08:17:20.504Z,92.90
2022-08-24T08:19:48.487Z,93.00
2022-08-24T08:22:33.796Z,92.80
2022-08-24T08:25:03.166Z,92.60
2022-08-24T08:27:31.314Z,92.40
2022-08-24T08:29:59.388Z,92.60
2022-08-24T08:32:27.346Z,92.40
2022-08-24T08:35:00.073Z,92.50
2022-08-24T08:37:31.093Z,92.30
2022-08-24T08:39:59.609Z,92.40
2022-08-24T08:42:48.143Z,92.40
2022-08-24T08:45:40.437Z,91.90
2022-08-24T08:48:37.321Z,91.70
2022-08-24T08:51:38.156Z,91.80
2022-08-24T08:54:26.830Z,91.50
2022-08-24T08:57:17.368Z,91.60
2022-08-24T08:59:58.112Z,91.70
2022-08-24T09:02:46.743Z,91.50
2022-08-24T09:05:40.783Z,91.20
2022-08-24T09:08:18.645Z,90.80
2022-08-24T09:10:56.920Z,91.00
2022-08-24T09:13:54.266Z,90.90
2022-08-24T09:16:41.698Z,90.70
2022-08-24T09:19:35.287Z,90.10
2022-08-24T09:22:12.907Z,90.40
2022-08-24T09:25:07.302Z,90.20
2022-08-24T09:27:51.497Z,90.10
2022-08-24T09:30:23.479Z,90.20
2022-08-24T09:33:07.735Z,89.60
2022-08-24T09:35:52.524Z,89.10
2022-08-24T09:38:29.064Z,88.30
2022-08-24T09:41:24.675Z,88.60
2022-08-24T09:44:30.506Z,89.00
2022-08-24T09:47:43.571Z,87.30
2022-08-24T09:50:47.150Z,86.70
2022-08-24T09:53:55.715Z,87.00
2022-08-24T09:56:42.156Z,86.20
2022-08-24T09:59:30.140Z,85.70
2022-08-24T10:02:16.062Z,85.70
2022-08-24T10:05:02.953Z,84.40
2022-08-24T10:07:40.147Z,84.10
2022-08-24T10:10:21.726Z,83.50
2022-08-24T10:12:59.868Z,83.40
2022-08-24T10:15:32.198Z,83.10
2022-08-24T10:18:23.557Z,82.60
2022-08-24T10:21:10.257Z,83.00
2022-08-24T10:24:07.958Z,81.80
2022-08-24T10:27:02.916Z,81.70
2022-08-24T10:29:49.260Z,80.00
2022-08-24T10:32:32.546Z,79.40
2022-08-24T10:35:05.846Z,80.00
2022-08-24T10:38:23.496Z,79.10
2022-08-24T10:41:09.178Z,78.50
2022-08-24T10:43:59.074Z,79.20
2022-08-24T10:46:40.334Z,78.20
2022-08-24T10:49:33.181Z,77.10
2022-08-24T10:52:39.386Z,76.90
2022-08-24T10:55:16.234Z,76.30
2022-08-24T10:57:58.584Z,78.80
2022-08-24T11:00:29.461Z,80.00
2022-08-24T11:03:09.801Z,79.50
2022-08-24T11:05:44.026Z,77.40
2022-08-24T11:08:20.823Z,77.10
2022-08-24T11:11:06.763Z,78.40
2022-08-24T11:13:37.882Z,76.80
2022-08-24T11:16:07.552Z,77.60
2022-08-24T11:18:54.813Z,77.90
2022-08-24T11:21:48.686Z,77.50
2022-08-24T11:24:40.708Z,75.80
2022-08-24T11:27:19.603Z,74.70
2022-08-24T11:30:10.863Z,75.10
2022-08-24T11:32:43.302Z,75.10
2022-08-24T11:35:21.498Z,76.00
2022-08-24T11:37:52.007Z,74.50
2022-08-24T11:40:23.115Z,73.50
2022-08-24T11:43:27.367Z,71.80
2022-08-24T11:46:13.469Z,70.50
2022-08-24T11:48:52.052Z,70.50
2022-08-24T11:51:32.030Z,70.20
2022-08-24T11:54:06.275Z,69.30
2022-08-24T11:56:42.304Z,67.30
2022-08-24T11:59:18.944Z,66.80
2022-08-24T12:01:54.684Z,64.80
2022-08-24T12:04:41.643Z,65.00
2022-08-24T12:07:20.837Z,63.70
2022-08-24T12:10:03.785Z,63.90
2022-08-24T12:12:38.716Z,63.40
2022-08-24T12:15:12.464Z,64.10
2022-08-24T12:17:48.245Z,62.20
2022-08-24T12:20:27.398Z,62.80
2022-08-24T12:23:00.815Z,61.70
2022-08-24T12:25:49.460Z,61.80
2022-08-24T12:28:25.351Z,60.40
2022-08-24T12:30:55.523Z,59.10
2022-08-24T12:33:32.092Z,58.70
2022-08-24T12:36:05.703Z,57.10
2022-08-24T12:38:39.486Z,56.80
2022-08-24T12:41:18.974Z,57.20
2022-08-24T12:43:51.476Z,55.90
2022-08-24T12:46:23.455Z,54.90
2022-08-24T12:48:57.477Z,54.80
2022-08-24T12:51:30.099Z,55.10
2022-08-24T12:54:19.814Z,54.10
2022-08-24T12:57:18.328Z,53.10
2022-08-24T12:59:49.702Z,53.60
2022-08-24T13:02:44.053Z,53.10
2022-08-24T13:05:20.670Z,54.00
2022-08-24T13:07:51.558Z,52.80
2022-08-24T13:10:40.048Z,50.90
2022-08-24T13:13:21.883Z,52.10
2022-08-24T13:16:03.622Z,50.50
2022-08-24T13:19:13.509Z,49.90
2022-08-24T13:21:47.097Z,49.70
2022-08-24T13:24:43.803Z,49.70
2022-08-24T13:27:56.796Z,49.90
2022-08-24T13:30:38.278Z,49.60
2022-08-24T13:33:11.344Z,49.80
2022-08-24T13:36:02.646Z,50.80
2022-08-24T13:39:00.676Z,48.90
2022-08-24T13:42:10.700Z,48.40
2022-08-24T13:45:07.520Z,47.30
2022-08-24T13:48:00.845Z,48.20
2022-08-24T13:50:34.091Z,48.30
2022-08-24T13:53:31.395Z,47.60
2022-08-24T13:56:32.387Z,48.50
2022-08-24T13:59:09.898Z,48.60
2022-08-24T14:01:50.290Z,48.20
2022-08-24T14:04:35.778Z,48.70
2022-08-24T14:07:13.126Z,48.80
2022-08-24T14:09:56.467Z,48.60
2022-08-24T14:12:44.951Z,47.80
2022-08-24T14:15:24.141Z,47.30
2022-08-24T14:18:02.952Z,47.50
2022-08-24T14:20:58.632Z,47.30
2022-08-24T14:23:47.920Z,47.60
2022-08-24T14:26:55.224Z,47.30
2022-08-24T14:29:34.217Z,48.30
2022-08-24T14:32:28.198Z,48.20
2022-08-24T14:35:22.795Z,48.00
2022-08-24T14:38:02.628Z,47.60
2022-08-24T14:40:37.227Z,47.20
2022-08-24T14:43:30.128Z,47.70
2022-08-24T14:46:11.314Z,47.90
2022-08-24T14:48:49.136Z,47.80
2022-08-24T14:51:39.111Z,48.80
2022-08-24T14:54:16.822Z,48.90
2022-08-24T14:56:59.503Z,49.50
2022-08-24T14:59:41.000Z,49.80
2022-08-24T15:02:51.699Z,50.10
2022-08-24T15:05:25.608Z,50.30
2022-08-24T15:07:57.430Z,50.00
2022-08-24T15:10:29.236Z,49.20
2022-08-24T15:13:03.801Z,49.80
2022-08-24T15:15:36.315Z,49.70
2022-08-24T15:18:21.625Z,48.80
2022-08-24T15:21:01.483Z,48.60
2022-08-24T15:23:42.823Z,48.10
2022-08-24T15:26:25.319Z,49.90
2022-08-24T15:28:56.725Z,50.20
2022-08-24T15:31:29.217Z,49.80
2022-08-24T15:33:59.510Z,51.40
2022-08-24T15:36:30.139Z,51.80
2022-08-24T15:38:58.399Z,50.10
2022-08-24T15:41:31.119Z,50.70
2022-08-24T15:44:02.319Z,50.50
2022-08-24T15:46:34.894Z,51.50
2022-08-24T15:49:06.955Z,51.70
2022-08-24T15:51:51.766Z,53.90
2022-08-24T15:54:33.078Z,51.70
2022-08-24T15:57:03.924Z,52.60
2022-08-24T15:59:45.400Z,53.40
2022-08-24T16:02:26.276Z,52.10
2022-08-24T16:05:02.203Z,52.30
2022-08-24T16:07:54.648Z,52.30
2022-08-24T16:10:32.736Z,52.10
2022-08-24T16:13:08.766Z,51.30
2022-08-24T16:15:47.045Z,51.90
2022-08-24T16:18:16.429Z,51.90
2022-08-24T16:20:46.139Z,52.90
2022-08-24T16:23:23.886Z,53.50
2022-08-24T16:26:20.996Z,52.20
2022-08-24T16:28:50.407Z,51.40
2022-08-24T16:31:46.995Z,51.30
2022-08-24T16:34:22.838Z,51.40
2022-08-24T16:36:50.964Z,51.70
2022-08-24T16:39:18.933Z,52.00
2022-08-24T16:41:50.126Z,52.90
2022-08-24T16:44:18.461Z,53.80
2022-08-24T16:46:48.000Z,53.50
2022-08-24T16:49:16.299Z,53.30
2022-08-24T16:51:45.429Z,52.30
2022-08-24T16:54:13.855Z,52.70
2022-08-24T16:56:42.929Z,53.40
2022-08-24T16:59:19.518Z,53.80
2022-08-24T17:01:50.209Z,54.30
2022-08-24T17:04:18.583Z,53.50
2022-08-24T17:06:47.963Z,53.10
2022-08-24T17:09:16.084Z,53.40
2022-08-24T17:11:44.404Z,53.70
2022-08-24T17:14:14.954Z,54.40
2022-08-24T17:16:43.391Z,55.30
2022-08-24T17:19:14.899Z,55.90
2022-08-24T17:21:45.604Z,56.00
2022-08-24T17:24:13.979Z,56.00
2022-08-24T17:26:45.675Z,55.40
2022-08-24T17:29:19.510Z,55.80
2022-08-24T17:31:49.642Z,56.10
2022-08-24T17:34:19.357Z,56.30
2022-08-24T17:36:47.941Z,56.20
2022-08-24T17:39:17.487Z,56.00
2022-08-24T17:41:46.091Z,56.20
2022-08-24T17:44:20.955Z,56.10
2022-08-24T17:46:51.627Z,56.30
2022-08-24T17:49:20.164Z,56.50
2022-08-24T17:51:49.512Z,56.70
2022-08-24T17:54:17.940Z,57.10
2022-08-24T17:56:48.663Z,57.50
2022-08-24T17:59:24.622Z,57.20
2022-08-24T18:01:54.406Z,57.30
2022-08-24T18:04:25.636Z,57.50
2022-08-24T18:06:54.024Z,57.50
2022-08-24T18:09:28.828Z,57.80
2022-08-24T18:11:59.775Z,57.70
2022-08-24T18:14:30.375Z,58.00
2022-08-24T18:17:02.064Z,58.30
2022-08-24T18:19:30.066Z,58.50
2022-08-24T18:21:58.032Z,58.70
2022-08-24T18:24:26.562Z,58.80
2022-08-24T18:26:54.509Z,58.80
2022-08-24T18:29:22.923Z,59.00
2022-08-24T18:31:54.209Z,59.30
2022-08-24T18:34:22.907Z,59.50
2022-08-24T18:36:51.187Z,59.80
2022-08-24T18:39:19.765Z,59.80
2022-08-24T18:41:49.681Z,60.20
2022-08-24T18:44:19.972Z,60.50
2022-08-24T18:46:48.908Z,61.00
2022-08-24T18:49:19.404Z,61.20
2022-08-24T18:51:49.149Z,61.50
2022-08-24T18:54:20.192Z,62.00
2022-08-24T18:56:48.722Z,62.40
2022-08-24T18:59:19.595Z,62.70
2022-08-24T19:02:07.850Z,62.80
2022-08-24T19:04:45.108Z,62.90
2022-08-24T19:07:13.980Z,63.30
2022-08-24T19:09:42.107Z,63.50
2022-08-24T19:12:10.697Z,63.60
2022-08-24T19:14:42.340Z,63.80
2022-08-24T19:17:12.534Z,63.80
2022-08-24T19:19:43.011Z,64.10
2022-08-24T19:22:11.140Z,64.20
2022-08-24T19:24:39.679Z,64.40
2022-08-24T19:27:07.820Z,64.70
2022-08-24T19:32:27.409Z,65.00
2022-08-24T19:34:57.960Z,64.60
2022-08-24T19:37:27.000Z,64.50
2022-08-24T19:39:55.030Z,64.30
2022-08-24T19:42:25.501Z,64.30
2022-08-24T19:45:12.594Z,65.50
2022-08-24T19:47:40.702Z,65.30
2022-08-24T19:50:11.361Z,65.00
2022-08-24T19:52:40.636Z,65.20
2022-08-24T19:55:09.631Z,65.00
2022-08-24T19:57:43.475Z,65.20
2022-08-24T20:00:37.364Z,65.00
2022-08-24T20:03:06.294Z,65.00
2022-08-24T20:05:38.020Z,64.90
2022-08-24T20:08:06.164Z,64.90
2022-08-24T20:10:36.395Z,65.00
2022-08-24T20:13:04.763Z,65.00
2022-08-24T20:15:37.609Z,64.90
2022-08-24T20:18:08.953Z,65.00
2022-08-24T20:20:39.025Z,65.10
2022-08-24T20:23:07.169Z,65.10
2022-08-24T20:25:36.138Z,65.30
2022-08-24T20:30:57.984Z,65.50
2022-08-24T20:33:28.137Z,65.60
2022-08-24T20:36:00.086Z,65.60
2022-08-24T20:38:31.752Z,65.70
2022-08-24T20:41:03.595Z,65.80
2022-08-24T20:43:31.927Z,65.90
2022-08-24T20:46:00.247Z,66.00
2022-08-24T20:48:32.411Z,66.20
2022-08-24T20:51:02.493Z,66.30
2022-08-24T20:53:30.493Z,66.30
2022-08-24T20:56:06.050Z,66.70
2022-08-24T20:58:34.039Z,65.90
2022-08-24T21:01:10.037Z,65.70
2022-08-24T21:03:38.584Z,65.60
2022-08-24T21:06:12.411Z,65.60
2022-08-24T21:08:48.483Z,65.90
2022-08-24T21:11:22.603Z,65.90
2022-08-24T21:13:50.536Z,65.70
2022-08-24T21:16:18.714Z,65.60
2022-08-24T21:18:47.009Z,65.80
2022-08-24T21:21:16.535Z,65.70
2022-08-24T21:23:44.515Z,65.70
2022-08-24T21:26:16.403Z,65.70
2022-08-24T21:28:45.209Z,65.80
2022-08-24T21:31:13.384Z,66.00
2022-08-24T21:33:59.074Z,65.80
2022-08-24T21:36:31.601Z,66.00
2022-08-24T21:38:59.887Z,66.00
2022-08-24T21:41:29.402Z,66.10
2022-08-24T21:43:58.187Z,66.20
2022-08-24T21:46:30.809Z,66.10
2022-08-24T21:48:59.049Z,66.20
2022-08-24T21:51:27.254Z,65.90
2022-08-24T21:53:59.479Z,66.00
2022-08-24T21:56:31.509Z,66.10
2022-08-24T21:59:00.231Z,66.80
2022-08-24T22:01:28.907Z,66.00
2022-08-24T22:03:58.134Z,66.00
2022-08-24T22:06:30.968Z,66.20
2022-08-24T22:09:01.602Z,66.00
2022-08-24T22:11:30.355Z,66.00
2022-08-24T22:13:58.604Z,66.10
2022-08-24T22:16:27.156Z,66.10
2022-08-24T22:18:55.562Z,66.20
2022-08-24T22:21:26.046Z,66.00
2022-08-24T22:23:55.319Z,66.00
2022-08-24T22:26:27.996Z,66.00
2022-08-24T22:28:56.831Z,66.10
2022-08-24T22:31:27.749Z,66.10
2022-08-24T22:33:56.588Z,65.90
2022-08-24T22:36:25.664Z,65.90
2022-08-24T22:38:56.201Z,65.70
2022-08-24T22:41:24.792Z,65.60
2022-08-24T22:44:13.351Z,65.60
2022-08-24T22:46:41.585Z,65.40
2022-08-24T22:49:10.641Z,65.60
2022-08-24T22:51:39.297Z,65.80
2022-08-24T22:54:08.053Z,65.70
2022-08-24T22:56:38.371Z,65.90
2022-08-24T22:59:09.043Z,65.70
2022-08-24T23:01:41.384Z,65.80
2022-08-24T23:04:14.469Z,65.70
2022-08-24T23:06:42.551Z,65.60
2022-08-24T23:09:11.071Z,65.50
2022-08-24T23:11:39.628Z,65.60
2022-08-24T23:14:10.250Z,65.80
2022-08-24T23:16:40.533Z,65.90
2022-08-24T23:19:26.795Z,66.10
2022-08-24T23:21:54.824Z,66.10
2022-08-24T23:24:23.012Z,66.30
2022-08-24T23:26:51.083Z,66.40
2022-08-24T23:29:20.591Z,66.40
2022-08-24T23:31:48.896Z,66.40
2022-08-24T23:34:17.716Z,66.30
2022-08-24T23:36:46.075Z,66.30
2022-08-24T23:39:14.823Z,66.50
2022-08-24T23:41:46.285Z,66.70
2022-08-24T23:44:17.332Z,66.40
2022-08-24T23:46:46.635Z,66.30
2022-08-24T23:49:16.122Z,66.60
2022-08-24T23:51:44.462Z,66.70
2022-08-24T23:54:13.419Z,66.70
2022-08-24T23:56:43.846Z,66.70
2022-08-24T23:59:13.807Z,66.70
